createdAt,value
2022-10-04T00:02:17.179Z,1018.94
2022-10-04T00:08:36.972Z,1018.94
2022-10-04T00:15:00.028Z,1018.88
2022-10-04T00:21:20.009Z,1018.82
2022-10-04T00:27:42.985Z,1018.78
2022-10-04T00:34:03.028Z,1018.78
2022-10-04T00:40:26.030Z,1018.8
2022-10-04T00:46:45.997Z,1018.73
2022-10-04T00:53:09.029Z,1018.69
2022-10-04T00:59:29.036Z,1018.63
2022-10-04T01:05:51.978Z,1018.51
2022-10-04T01:12:12.050Z,1018.43
2022-10-04T01:18:34.986Z,1018.39
2022-10-04T01:24:55.003Z,1018.35
2022-10-04T01:31:18.128Z,1018.35
2022-10-04T01:37:37.989Z,1018.25
2022-10-04T01:44:01.009Z,1018.21
2022-10-04T01:50:21.042Z,1018.17
2022-10-04T01:56:44.013Z,1018.09
2022-10-04T02:03:03.972Z,1018.07
2022-10-04T02:09:27.031Z,1018.07
2022-10-04T02:15:47.002Z,1018.03
2022-10-04T02:22:09.976Z,1018.05
2022-10-04T02:28:30.035Z,1018.09
2022-10-04T02:34:52.984Z,1018.03
2022-10-04T02:41:12.993Z,1018.01
2022-10-04T02:47:36.016Z,1017.97
2022-10-04T02:53:58.694Z,1017.97
2022-10-04T03:00:18.974Z,1017.89
2022-10-04T03:22:11.020Z,1017.68
2022-10-04T03:28:34.061Z,1017.66
2022-10-04T03:34:53.988Z,1017.6
2022-10-04T03:41:17.021Z,1017.52
2022-10-04T03:47:36.978Z,1017.44
2022-10-04T03:54:00.037Z,1017.36
2022-10-04T04:00:20.006Z,1017.29
2022-10-04T04:06:42.984Z,1017.27
2022-10-04T04:13:03.011Z,1017.34
2022-10-04T04:19:26.020Z,1017.36
2022-10-04T04:25:45.986Z,1017.38
2022-10-04T04:32:09.082Z,1017.36
2022-10-04T04:38:28.997Z,1017.27
2022-10-04T04:44:51.991Z,1017.21
2022-10-04T04:51:12.017Z,1017.21
2022-10-04T04:57:35.025Z,1017.27
2022-10-04T05:03:55.041Z,1017.33
2022-10-04T05:10:17.994Z,1017.33
2022-10-04T05:16:38.156Z,1017.29
2022-10-04T05:23:01.037Z,1017.29
2022-10-04T05:29:20.974Z,1017.25
2022-10-04T05:35:44.026Z,1017.19
2022-10-04T05:42:03.976Z,1017.13
2022-10-04T05:48:26.998Z,1017.07
2022-10-04T05:54:47.105Z,1017.05
2022-10-04T06:01:10.013Z,1017.05
2022-10-04T06:07:30.032Z,1017.03
2022-10-04T06:13:52.995Z,1016.99
2022-10-04T06:20:13.013Z,1016.97
2022-10-04T06:26:35.972Z,1016.95
2022-10-04T06:32:56.084Z,1016.94
2022-10-04T06:39:18.982Z,1016.94
2022-10-04T06:45:39.038Z,1016.95
2022-10-04T06:52:02.050Z,1016.94
2022-10-04T06:58:21.987Z,1016.88
2022-10-04T07:05:09.245Z,1016.84
2022-10-04T07:11:06.483Z,1016.94
2022-10-04T07:17:28.017Z,1016.97
2022-10-04T07:23:48.051Z,1016.99
2022-10-04T07:30:10.992Z,1016.95
2022-10-04T07:36:31.025Z,1016.99
2022-10-04T07:42:53.982Z,1016.97
2022-10-04T07:49:14.313Z,1016.92
2022-10-04T07:55:37.046Z,1016.99
2022-10-04T08:01:57.033Z,1017.05
2022-10-04T08:18:43.004Z,1017.01
2022-10-04T08:25:02.970Z,1016.99
2022-10-04T08:31:26.076Z,1017.03
2022-10-04T08:37:46.012Z,1017.05
2022-10-04T08:44:09.004Z,1017.03
2022-10-04T08:50:29.030Z,1016.99
2022-10-04T08:56:52.032Z,1016.95
2022-10-04T09:03:11.997Z,1016.97
2022-10-04T09:09:35.314Z,1016.97
2022-10-04T09:15:55.390Z,1016.97
2022-10-04T09:22:19.058Z,1016.92
2022-10-04T09:28:39.020Z,1016.84
2022-10-04T09:35:02.199Z,1016.78
2022-10-04T09:41:22.141Z,1016.82
2022-10-04T09:47:45.195Z,1016.74
2022-10-04T09:54:05.114Z,1016.66
2022-10-04T10:00:27.976Z,1016.64
2022-10-04T10:06:48.285Z,1016.54
2022-10-04T10:13:11.013Z,1016.5
2022-10-04T10:19:30.978Z,1016.47
2022-10-04T10:25:53.993Z,1016.43
2022-10-04T10:32:14.002Z,1016.37
2022-10-04T10:38:36.989Z,1016.37
2022-10-04T10:44:57.207Z,1016.35
2022-10-04T10:51:20.339Z,1016.37
2022-10-04T10:57:39.983Z,1016.31
2022-10-04T11:04:03.058Z,1016.31
2022-10-04T11:10:23.113Z,1016.25
2022-10-04T11:16:46.322Z,1016.15
2022-10-04T11:23:06.013Z,1016.11
2022-10-04T11:29:29.013Z,1015.98
2022-10-04T11:35:49.198Z,1015.9
2022-10-04T11:42:11.974Z,1015.82
2022-10-04T11:48:31.998Z,1015.69
2022-10-04T11:54:55.000Z,1015.62
2022-10-04T12:01:14.968Z,1015.54
2022-10-04T12:07:38.018Z,1015.48
2022-10-04T12:13:58.205Z,1015.5
2022-10-04T12:20:20.997Z,1015.44
2022-10-04T12:26:41.026Z,1015.24
2022-10-04T12:33:04.011Z,1015.13
2022-10-04T12:39:23.993Z,1015.09
2022-10-04T12:45:47.066Z,1015.11
2022-10-04T12:52:07.118Z,1015.07
2022-10-04T12:58:29.988Z,1014.91
2022-10-04T13:04:50.005Z,1014.81
2022-10-04T13:11:13.011Z,1014.69
2022-10-04T13:34:35.525Z,1014.46
2022-10-04T13:40:54.993Z,1014.4
2022-10-04T13:47:18.026Z,1014.42
2022-10-04T13:53:38.054Z,1014.38
2022-10-04T14:00:01.010Z,1014.34
2022-10-04T14:06:21.012Z,1014.26
2022-10-04T14:12:44.005Z,1014.21
2022-10-04T14:19:03.999Z,1014.09
2022-10-04T14:25:26.983Z,1013.99
2022-10-04T14:31:47.467Z,1013.91
2022-10-04T14:38:09.987Z,1013.81
2022-10-04T14:44:29.997Z,1013.77
2022-10-04T14:50:53.053Z,1013.75
2022-10-04T14:57:12.984Z,1013.79
2022-10-04T15:03:35.995Z,1013.74
2022-10-04T15:09:56.017Z,1013.6
2022-10-04T15:16:20.004Z,1013.62
2022-10-04T15:22:40.108Z,1013.54
2022-10-04T15:29:03.028Z,1013.46
2022-10-04T15:35:23.008Z,1013.42
2022-10-04T15:41:46.058Z,1013.48
2022-10-04T15:48:06.276Z,1013.44
2022-10-04T15:54:29.302Z,1013.4
2022-10-04T16:00:48.964Z,1013.4
2022-10-04T16:07:12.027Z,1013.44
2022-10-04T16:13:31.974Z,1013.46
2022-10-04T16:19:55.122Z,1013.54
2022-10-04T16:26:15.034Z,1013.58
2022-10-04T16:32:38.023Z,1013.64
2022-10-04T16:38:58.066Z,1013.66
2022-10-04T16:45:21.022Z,1013.74
2022-10-04T16:51:41.058Z,1013.75
2022-10-04T16:58:04.185Z,1013.79
2022-10-04T17:04:24.220Z,1013.87
2022-10-04T17:10:46.981Z,1013.89
2022-10-04T17:17:07.005Z,1013.89
2022-10-04T17:23:30.061Z,1013.95
2022-10-04T17:29:49.969Z,1014.01
2022-10-04T17:36:13.010Z,1014.01
2022-10-04T17:42:33.200Z,1014.09
2022-10-04T17:48:55.981Z,1014.11
2022-10-04T17:55:16.001Z,1014.15
2022-10-04T18:01:39.089Z,1014.21
2022-10-04T18:07:59.510Z,1014.26
2022-10-04T18:24:27.974Z,1014.38
2022-10-04T18:30:47.964Z,1014.44
2022-10-04T18:37:10.983Z,1014.4
2022-10-04T18:43:30.990Z,1014.36
2022-10-04T18:49:53.983Z,1014.4
2022-10-04T18:56:13.992Z,1014.4
2022-10-04T19:02:37.016Z,1014.48
2022-10-04T19:08:57.002Z,1014.6
2022-10-04T19:15:19.994Z,1014.71
2022-10-04T19:21:39.991Z,1014.81
2022-10-04T19:28:03.106Z,1014.81
2022-10-04T19:34:23.021Z,1014.85
2022-10-04T19:40:46.019Z,1014.85
2022-10-04T19:47:06.127Z,1014.85
2022-10-04T19:53:29.141Z,1014.81
2022-10-04T19:59:49.031Z,1014.77
2022-10-04T20:06:11.964Z,1014.75
2022-10-04T20:12:31.999Z,1014.73
2022-10-04T20:18:55.071Z,1014.62
2022-10-04T20:25:15.018Z,1014.54
2022-10-04T20:31:38.028Z,1014.54
2022-10-04T20:38:13.814Z,1014.54
2022-10-04T20:44:22.007Z,1014.54
2022-10-04T20:50:41.966Z,1014.58
2022-10-04T20:57:05.035Z,1014.6
2022-10-04T21:03:25.028Z,1014.66
2022-10-04T21:09:48.027Z,1014.66
2022-10-04T21:16:08.085Z,1014.73
2022-10-04T21:22:30.992Z,1014.75
2022-10-04T21:28:51.008Z,1014.75
2022-10-04T21:35:14.013Z,1014.77
2022-10-04T21:41:33.977Z,1014.79
2022-10-04T21:47:56.991Z,1014.77
2022-10-04T21:54:17.024Z,1014.81
2022-10-04T22:19:51.003Z,1014.77
2022-10-04T22:26:10.968Z,1014.75
2022-10-04T22:32:33.993Z,1014.71
2022-10-04T22:38:54.081Z,1014.73
2022-10-04T22:45:16.963Z,1014.71
2022-10-04T22:51:37.089Z,1014.69
2022-10-04T22:58:00.284Z,1014.64
2022-10-04T23:04:20.025Z,1014.62
2022-10-04T23:10:42.963Z,1014.54
2022-10-04T23:17:03.017Z,1014.52
2022-10-04T23:23:26.001Z,1014.48
2022-10-04T23:29:45.973Z,1014.44
2022-10-04T23:36:08.995Z,1014.42
2022-10-04T23:42:29.004Z,1014.4
2022-10-04T23:48:52.036Z,1014.42
2022-10-04T23:55:11.979Z,1014.42
